Mr. Mag — WDE7813 — position and weather

sailwx.info

Track history (hours):
 
Tides and Currents Weather Stations Pressure Air Temp Water Temp Dewpoint Dewpoint Depression Visibility Wind Speed Wind Dir Waves Ship Positions

Mr. Mag

Owner: Tandi Marine, Inc., Larose, LA. More information available from US FCC via Universal Licensing System and Coast Guard Vessel Documentation Center.

Last reported at 2017-Jul-21 08:15 UTC. Time now 2017-Jul-23 18:34 UTC.
Position N 29°45' W 093°21'.

Length 46 m; draft 2.5 m.

Type: Passenger vessel. MMSI: 367397990.

Date/timePositionNaut miles runAvg speedWind from/ knotsBaromVisibWave heightAir tempDewpointWater temp
2017-Jul-21 08:15N 29°45' W 093°21'3 3.2
2017-Jul-21 07:13N 29°48' W 093°21'1 5.1
2017-Jul-21 07:00N 29°49' W 093°21'0 0.7
2017-Jul-21 06:30N 29°49' W 093°20'3 0.1
2017-Jul-19 13:49N 29°46' W 093°21'3 8.2
2017-Jul-19 13:30N 29°49' W 093°21'0 0.0
2017-Jul-19 11:54N 29°49' W 093°21'  
2017-Jul-11 09:01N 29°33' W 092°18'0 1.0
2017-Jul-11 08:33N 29°33' W 092°18'1 6.1
2017-Jul-11 08:28N 29°34' W 092°18'  
Track history (hours):
 
Tides and Currents Weather Stations Pressure Air Temp Water Temp Dewpoint Dewpoint Depression Visibility Wind Speed Wind Dir Waves Ship Positions

Mr. Mag

Owner: Tandi Marine, Inc., Larose, LA. More information available from US FCC via Universal Licensing System and Coast Guard Vessel Documentation Center.

Last reported at 2017-Jul-21 08:15 UTC. Time now 2017-Jul-23 18:34 UTC.
Position N 29°45' W 093°21'.

Length 46 m; draft 2.5 m.

Type: Passenger vessel. MMSI: 367397990.

Date/timePositionNaut miles runAvg speedWind from/ knotsBaromVisibWave heightAir tempDewpointWater temp
2017-Jul-21 08:15N 29°45' W 093°21'3 3.2
2017-Jul-21 07:13N 29°48' W 093°21'1 5.1
2017-Jul-21 07:00N 29°49' W 093°21'0 0.7
2017-Jul-21 06:30N 29°49' W 093°20'3 0.1
2017-Jul-19 13:49N 29°46' W 093°21'3 8.2
2017-Jul-19 13:30N 29°49' W 093°21'0 0.0
2017-Jul-19 11:54N 29°49' W 093°21'  
2017-Jul-11 09:01N 29°33' W 092°18'0 1.0
2017-Jul-11 08:33N 29°33' W 092°18'1 6.1
2017-Jul-11 08:28N 29°34' W 092°18'  

Dump ship's entire track history